Main page
METAR-TAF:

METAR-TAF

Airports :

Vestmannaeyjar Airport

Vestmannaeyjar, Iceland

latitude: 63-24N, longitude: 020-17W, elevation: 118 m

Current weather observation

The report was made 50 minutes ago, at 18:12 UTC
Wind 5 kt from the Southwest
Temperature 2°C
Humidity 93%
Pressure 984 hPa
Visibility: 8000 m
Scattered clouds at a height of 1800 ft

METAR: BIVM 091812Z 22005KT 8000 SCT018 02/01 Q0984

Time: 19:02 (19:02 UTC)

Forecast

The report was made 5 hours and 52 minutes ago, at 13:10 UTC
Forecast valid from 09 at 14 UTC to 09 at 23 UTC
Wind 18 kt from the Southwest
Visibility 10 km or more
Broken clouds at a height of 1500 ft
Overcast at a height of 2500 ft
light rain
Probability 40% :
Temporary
from 09 at 14 UTC to 09 at 16 UTC
Visibility: 5000 m
Overcast at a height of 600 ft
rain, mist

TAF: BIVM 091310Z 0914/0923 22018KT 9999 -RA BKN015 OVC025 PROB40 TEMPO 0914/0916 5000 RA BR OVC006

Weather observations and forecasts of more than 4000 airports (METAR and TAF reports).

The available stations are represented by yellow and red dots on the map.

Hover mouse over dot to see the name of the station.

Then click to see weather observations and forecasts.

To change the map : click on the green buttons with a black cross to zoom in, on the green button with a dash to zoom out, or on the green arrows for adjacent maps.


METAR-TAF: